createdAt,value
2023-05-07T00:01:04.589Z,32.70
2023-05-07T00:03:35.970Z,32.70
2023-05-07T00:06:07.356Z,32.70
2023-05-07T00:08:38.983Z,32.80
2023-05-07T00:11:10.181Z,32.80
2023-05-07T00:13:43.788Z,32.80
2023-05-07T00:19:10.843Z,32.80
2023-05-07T00:21:41.598Z,32.80
2023-05-07T00:24:12.725Z,32.90
2023-05-07T00:26:43.820Z,32.90
2023-05-07T00:29:14.917Z,32.90
2023-05-07T00:31:46.091Z,32.90
2023-05-07T00:34:17.569Z,33.00
2023-05-07T00:36:48.664Z,33.00
2023-05-07T00:39:19.831Z,33.00
2023-05-07T00:41:50.961Z,33.00
2023-05-07T00:44:22.294Z,33.10
2023-05-07T00:46:53.421Z,33.10
2023-05-07T00:49:25.005Z,33.20
2023-05-07T00:52:03.221Z,33.20
2023-05-07T00:54:53.813Z,33.30
2023-05-07T00:57:31.513Z,33.40
2023-05-07T01:00:02.648Z,33.40
2023-05-07T01:02:33.832Z,33.50
2023-05-07T01:05:07.122Z,33.60
2023-05-07T01:07:40.413Z,33.60
2023-05-07T01:10:13.764Z,33.60
2023-05-07T01:12:46.318Z,33.70
2023-05-07T01:15:18.054Z,33.80
2023-05-07T01:17:49.259Z,33.90
2023-05-07T01:20:21.211Z,33.90
2023-05-07T01:22:52.750Z,34.00
2023-05-07T01:25:34.350Z,34.10
2023-05-07T01:28:17.108Z,34.10
2023-05-07T01:33:55.156Z,34.20
2023-05-07T01:36:28.955Z,34.30
2023-05-07T01:39:01.726Z,34.40
2023-05-07T01:41:34.392Z,34.50
2023-05-07T01:44:07.034Z,34.60
2023-05-07T01:46:38.935Z,34.70
2023-05-07T01:52:13.424Z,34.80
2023-05-07T01:54:44.845Z,35.00
2023-05-07T01:57:16.087Z,35.00
2023-05-07T01:59:49.855Z,35.10
2023-05-07T02:02:19.961Z,35.20
2023-05-07T02:04:52.052Z,35.30
2023-05-07T02:07:24.388Z,35.30
2023-05-07T02:09:55.891Z,35.40
2023-05-07T02:12:32.248Z,35.50
2023-05-07T02:15:15.860Z,35.60
2023-05-07T02:18:23.983Z,35.70
2023-05-07T02:20:54.831Z,35.80
2023-05-07T02:23:26.394Z,35.90
2023-05-07T02:25:57.559Z,36.00
2023-05-07T02:28:28.795Z,36.10
2023-05-07T02:31:00.684Z,36.10
2023-05-07T02:33:34.353Z,36.20
2023-05-07T02:36:15.422Z,36.30
2023-05-07T02:38:56.200Z,36.40
2023-05-07T02:41:27.395Z,36.50
2023-05-07T02:43:58.598Z,36.60
2023-05-07T02:46:33.144Z,36.70
2023-05-07T02:49:10.265Z,36.80
2023-05-07T02:51:41.163Z,36.90
2023-05-07T02:54:16.519Z,37.10
2023-05-07T02:56:47.668Z,37.10
2023-05-07T02:59:25.556Z,37.20
2023-05-07T03:01:59.396Z,37.20
2023-05-07T03:04:45.183Z,37.30
2023-05-07T03:07:38.337Z,37.40
2023-05-07T03:13:19.681Z,37.40
2023-05-07T03:15:51.757Z,37.60
2023-05-07T03:18:26.706Z,37.60
2023-05-07T03:21:04.864Z,37.60
2023-05-07T03:23:48.589Z,37.80
2023-05-07T03:29:29.911Z,37.80
2023-05-07T03:32:02.131Z,37.90
2023-05-07T03:34:46.614Z,37.90
2023-05-07T03:37:21.291Z,38.00
2023-05-07T03:39:52.452Z,38.10
2023-05-07T03:42:24.402Z,38.20
2023-05-07T03:44:55.956Z,38.30
2023-05-07T03:47:27.107Z,38.30
2023-05-07T03:49:59.630Z,38.40
2023-05-07T03:52:30.852Z,38.40
2023-05-07T03:55:01.955Z,38.20
2023-05-07T03:57:34.342Z,38.10
2023-05-07T04:00:06.596Z,38.10
2023-05-07T04:02:38.474Z,38.10
2023-05-07T04:05:10.224Z,38.30
2023-05-07T04:07:41.794Z,38.40
2023-05-07T04:10:17.997Z,38.50
2023-05-07T04:12:49.159Z,38.50
2023-05-07T04:15:21.388Z,38.60
2023-05-07T04:17:52.991Z,38.70
2023-05-07T04:20:24.161Z,38.80
2023-05-07T04:22:55.256Z,38.80
2023-05-07T04:25:28.049Z,38.90
2023-05-07T04:28:01.334Z,38.90
2023-05-07T04:30:32.454Z,39.00
2023-05-07T04:33:03.686Z,39.10
2023-05-07T04:35:34.892Z,39.10
2023-05-07T04:38:07.367Z,39.20
2023-05-07T04:40:41.098Z,39.20
2023-05-07T04:43:12.205Z,39.30
2023-05-07T04:45:46.132Z,39.30
2023-05-07T04:48:17.678Z,39.40
2023-05-07T04:50:50.477Z,39.40
2023-05-07T04:53:23.574Z,39.50
2023-05-07T04:55:59.833Z,39.50
2023-05-07T04:58:33.204Z,39.50
2023-05-07T05:01:04.467Z,39.50
2023-05-07T05:03:35.751Z,39.50
2023-05-07T05:06:11.350Z,39.60
2023-05-07T05:08:52.196Z,39.60
2023-05-07T05:11:27.852Z,39.60
2023-05-07T05:14:05.963Z,39.70
2023-05-07T05:16:37.823Z,39.70
2023-05-07T05:19:10.381Z,39.80
2023-05-07T05:21:50.820Z,39.80
2023-05-07T05:24:41.351Z,39.90
2023-05-07T05:27:14.213Z,39.90
2023-05-07T05:29:46.614Z,40.00
2023-05-07T05:32:18.058Z,40.00
2023-05-07T05:35:04.732Z,40.00
2023-05-07T05:37:37.950Z,40.10
2023-05-07T05:40:10.404Z,40.00
2023-05-07T05:42:42.499Z,40.00
2023-05-07T05:45:20.933Z,40.10
2023-05-07T05:48:00.075Z,40.20
2023-05-07T05:50:31.544Z,40.20
2023-05-07T05:53:04.608Z,40.30
2023-05-07T05:55:35.912Z,40.30
2023-05-07T05:58:07.531Z,40.30
2023-05-07T06:00:39.075Z,40.30
2023-05-07T06:03:10.885Z,40.30
2023-05-07T06:05:42.059Z,40.30
2023-05-07T06:08:13.235Z,40.30
2023-05-07T06:10:44.553Z,40.30
2023-05-07T06:13:18.238Z,40.20
2023-05-07T06:15:51.240Z,40.20
2023-05-07T06:18:23.336Z,40.20
2023-05-07T06:20:55.187Z,40.10
2023-05-07T06:23:26.548Z,40.10
2023-05-07T06:25:59.309Z,40.10
2023-05-07T06:28:30.520Z,40.10
2023-05-07T06:31:04.184Z,40.00
2023-05-07T06:33:39.824Z,39.90
2023-05-07T06:36:16.844Z,39.80
2023-05-07T06:38:48.639Z,39.80
2023-05-07T06:41:22.730Z,39.70
2023-05-07T06:43:54.349Z,39.60
2023-05-07T06:46:25.611Z,39.50
2023-05-07T06:48:56.945Z,39.40
2023-05-07T06:51:28.972Z,39.40
2023-05-07T06:54:00.544Z,39.40
2023-05-07T06:56:32.526Z,39.50
2023-05-07T06:59:05.469Z,39.60
2023-05-07T07:01:39.101Z,39.70
2023-05-07T07:04:11.611Z,39.80
2023-05-07T07:06:44.073Z,39.70
2023-05-07T07:09:15.218Z,39.70
2023-05-07T07:11:59.339Z,39.80
2023-05-07T07:14:30.600Z,39.80
2023-05-07T07:17:01.743Z,39.90
2023-05-07T07:19:33.319Z,39.90
2023-05-07T07:22:04.605Z,39.90
2023-05-07T07:24:37.134Z,39.90
2023-05-07T07:27:08.261Z,39.90
2023-05-07T07:29:39.613Z,39.90
2023-05-07T07:32:12.620Z,39.90
2023-05-07T07:34:46.267Z,40.00
2023-05-07T07:37:17.391Z,40.10
2023-05-07T07:39:49.147Z,40.10
2023-05-07T07:42:20.591Z,40.00
2023-05-07T07:44:51.912Z,40.10
2023-05-07T07:47:23.011Z,40.10
2023-05-07T07:49:54.225Z,40.10
2023-05-07T07:52:27.016Z,40.00
2023-05-07T07:54:58.151Z,40.00
2023-05-07T07:57:37.200Z,40.10
2023-05-07T08:00:09.575Z,40.10
2023-05-07T08:02:51.645Z,40.10
2023-05-07T08:05:23.023Z,40.00
2023-05-07T08:10:44.536Z,40.00
2023-05-07T08:13:16.459Z,40.00
2023-05-07T08:15:48.496Z,40.00
2023-05-07T08:18:19.736Z,39.90
2023-05-07T08:20:51.493Z,39.90
2023-05-07T08:23:26.433Z,39.90
2023-05-07T08:25:57.788Z,39.90
2023-05-07T08:28:29.545Z,39.80
2023-05-07T08:31:11.443Z,39.80
2023-05-07T08:33:42.642Z,39.80
2023-05-07T08:36:13.776Z,39.80
2023-05-07T08:38:46.637Z,39.70
2023-05-07T08:41:17.912Z,39.80
2023-05-07T08:43:51.949Z,39.70
2023-05-07T08:46:27.745Z,39.70
2023-05-07T08:48:58.170Z,39.70
2023-05-07T08:51:29.365Z,39.70
2023-05-07T08:54:01.387Z,39.70
2023-05-07T08:56:32.658Z,39.70
2023-05-07T08:59:03.985Z,39.70
2023-05-07T09:01:35.125Z,39.60
2023-05-07T09:04:07.906Z,39.60
2023-05-07T09:06:40.554Z,39.60
2023-05-07T09:09:12.564Z,39.60
2023-05-07T09:11:44.323Z,39.60
2023-05-07T09:14:19.663Z,39.60
2023-05-07T09:16:51.253Z,39.60
2023-05-07T09:19:30.007Z,39.60
2023-05-07T09:22:11.445Z,39.60
2023-05-07T09:24:44.881Z,39.60
2023-05-07T09:27:17.461Z,39.50
2023-05-07T09:29:48.938Z,39.50
2023-05-07T09:32:20.879Z,39.50
2023-05-07T09:34:56.137Z,39.50
2023-05-07T09:40:30.848Z,39.40
2023-05-07T09:43:16.188Z,39.40
2023-05-07T09:45:47.486Z,39.30
2023-05-07T09:48:20.994Z,39.30
2023-05-07T09:50:55.220Z,39.30
2023-05-07T09:53:27.531Z,39.30
2023-05-07T09:56:03.596Z,39.20
2023-05-07T09:58:35.469Z,39.20
2023-05-07T10:01:08.377Z,39.20
2023-05-07T10:03:40.066Z,39.10
2023-05-07T10:06:15.469Z,39.10
2023-05-07T10:08:50.365Z,39.00
2023-05-07T10:11:22.736Z,39.00
2023-05-07T10:13:55.253Z,39.00
2023-05-07T10:16:27.488Z,39.00
2023-05-07T10:18:59.359Z,39.00
2023-05-07T10:21:33.922Z,39.00
2023-05-07T10:24:19.007Z,39.00
2023-05-07T10:26:52.496Z,38.90
2023-05-07T10:29:42.023Z,38.90
2023-05-07T10:32:47.417Z,38.90
2023-05-07T10:35:11.072Z,38.90
2023-05-07T10:38:01.678Z,38.80
2023-05-07T10:40:19.914Z,38.80
2023-05-07T10:43:06.013Z,38.80
2023-05-07T10:45:38.042Z,38.80
2023-05-07T10:50:51.950Z,38.70
2023-05-07T10:53:25.932Z,38.70
2023-05-07T10:56:15.679Z,38.70
2023-05-07T10:58:46.930Z,38.70
2023-05-07T11:01:19.200Z,38.70
2023-05-07T11:04:12.220Z,38.60
2023-05-07T11:06:43.927Z,38.60
2023-05-07T11:09:17.572Z,38.60
2023-05-07T11:12:00.936Z,38.60
2023-05-07T11:14:56.009Z,38.50
2023-05-07T11:17:23.443Z,38.50
2023-05-07T11:19:56.181Z,38.50
2023-05-07T11:22:40.445Z,38.40
2023-05-07T11:25:12.035Z,38.40
2023-05-07T11:27:44.959Z,38.40
2023-05-07T11:30:23.078Z,38.40
2023-05-07T11:32:54.362Z,38.30
2023-05-07T11:35:26.961Z,38.30
2023-05-07T11:38:00.566Z,38.20
2023-05-07T11:40:31.936Z,38.20
2023-05-07T11:43:04.271Z,38.20
2023-05-07T11:45:36.828Z,38.10
2023-05-07T11:48:10.715Z,38.10
2023-05-07T11:51:02.350Z,38.00
2023-05-07T11:53:38.112Z,38.00
2023-05-07T11:56:13.352Z,38.00
2023-05-07T11:58:51.054Z,37.90
2023-05-07T12:01:22.152Z,37.80
2023-05-07T12:03:53.357Z,37.70
2023-05-07T12:06:25.030Z,37.60
2023-05-07T12:09:03.324Z,37.40
2023-05-07T12:11:34.525Z,37.30
2023-05-07T12:14:08.417Z,37.30
2023-05-07T12:16:38.155Z,37.20
2023-05-07T12:19:10.650Z,37.10
2023-05-07T12:21:42.325Z,37.00
2023-05-07T12:24:13.548Z,37.00
2023-05-07T12:26:45.426Z,37.00
2023-05-07T12:29:16.530Z,36.90
2023-05-07T12:31:47.687Z,36.90
2023-05-07T12:34:19.832Z,36.80
2023-05-07T12:36:52.132Z,36.80
2023-05-07T12:39:23.353Z,36.80
2023-05-07T12:42:01.602Z,36.80
2023-05-07T12:44:38.587Z,36.70
2023-05-07T12:47:11.037Z,36.70
2023-05-07T12:49:42.375Z,36.70
2023-05-07T12:52:14.998Z,36.70
2023-05-07T12:54:47.784Z,36.60
2023-05-07T13:00:26.981Z,36.60
2023-05-07T13:02:50.666Z,36.60
2023-05-07T13:05:40.906Z,36.50
2023-05-07T13:08:11.919Z,36.50
2023-05-07T13:10:43.129Z,36.50
2023-05-07T13:13:14.296Z,36.50
2023-05-07T13:15:49.488Z,36.40
2023-05-07T13:18:25.055Z,36.40
2023-05-07T13:20:57.914Z,36.30
2023-05-07T13:23:33.359Z,36.30
2023-05-07T13:26:11.661Z,36.30
2023-05-07T13:28:38.112Z,36.30
2023-05-07T13:31:49.111Z,36.30
2023-05-07T13:33:51.926Z,36.30
2023-05-07T13:36:24.124Z,36.30
2023-05-07T13:38:55.245Z,36.30
2023-05-07T13:41:26.383Z,36.20
2023-05-07T13:43:57.547Z,36.20
2023-05-07T13:46:34.297Z,36.10
2023-05-07T13:49:12.072Z,36.20
2023-05-07T13:51:43.486Z,36.00
2023-05-07T13:54:14.707Z,36.10
2023-05-07T13:56:45.831Z,36.00
2023-05-07T13:59:16.555Z,36.00
2023-05-07T14:01:47.367Z,35.90
2023-05-07T14:04:18.091Z,35.90
2023-05-07T14:06:49.026Z,35.90
2023-05-07T14:09:20.282Z,35.90
2023-05-07T14:11:52.485Z,35.90
2023-05-07T14:14:27.348Z,35.90
2023-05-07T14:17:00.585Z,35.80
2023-05-07T14:19:34.130Z,35.80
2023-05-07T14:22:04.903Z,35.80
2023-05-07T14:24:38.694Z,35.80
2023-05-07T14:27:16.241Z,35.70
2023-05-07T14:29:58.987Z,35.70
2023-05-07T14:32:36.316Z,35.70
2023-05-07T14:35:33.282Z,35.70
2023-05-07T14:38:28.946Z,35.70
2023-05-07T14:43:48.855Z,35.70
2023-05-07T14:46:33.117Z,35.70
2023-05-07T14:52:02.505Z,35.70
2023-05-07T14:54:33.854Z,35.70
2023-05-07T14:57:08.745Z,35.70
2023-05-07T14:59:40.876Z,35.70
2023-05-07T15:02:13.524Z,35.70
2023-05-07T15:04:46.089Z,35.70
2023-05-07T15:07:19.810Z,35.60
2023-05-07T15:09:52.508Z,35.60
2023-05-07T15:12:27.183Z,35.60
2023-05-07T15:14:57.933Z,35.60
2023-05-07T15:17:28.806Z,35.60
2023-05-07T15:20:00.961Z,35.60
2023-05-07T15:22:31.854Z,35.60
2023-05-07T15:25:05.610Z,35.50
2023-05-07T15:27:36.383Z,35.50
2023-05-07T15:30:10.190Z,35.50
2023-05-07T15:32:55.214Z,35.40
2023-05-07T15:35:49.449Z,35.40
2023-05-07T15:38:08.661Z,35.40
2023-05-07T15:40:44.990Z,35.30
2023-05-07T15:43:24.182Z,35.40
2023-05-07T15:45:50.454Z,35.30
2023-05-07T15:48:24.003Z,35.30
2023-05-07T15:50:54.989Z,35.20
2023-05-07T15:56:18.966Z,35.20
2023-05-07T15:59:04.328Z,35.20
2023-05-07T16:04:27.789Z,35.10
2023-05-07T16:09:48.753Z,35.10
2023-05-07T16:15:26.494Z,35.00
2023-05-07T16:20:57.687Z,35.00
2023-05-07T16:23:32.628Z,35.00
2023-05-07T16:26:03.727Z,35.00
2023-05-07T16:28:34.493Z,35.00
2023-05-07T16:31:07.623Z,34.90
2023-05-07T16:33:39.093Z,34.90
2023-05-07T16:36:10.415Z,34.90
2023-05-07T16:38:41.202Z,34.90
2023-05-07T16:41:13.065Z,34.80
2023-05-07T16:43:48.025Z,34.90
2023-05-07T16:46:16.331Z,34.80
2023-05-07T16:48:49.799Z,34.80
2023-05-07T16:51:22.642Z,34.70
2023-05-07T16:54:00.893Z,34.70
2023-05-07T16:56:32.635Z,34.70
2023-05-07T17:01:59.527Z,34.70
2023-05-07T17:04:31.153Z,34.70
2023-05-07T17:07:04.882Z,34.60
2023-05-07T17:09:35.674Z,34.60
2023-05-07T17:12:07.932Z,34.60
2023-05-07T17:14:38.763Z,34.60
2023-05-07T17:20:07.121Z,34.50
2023-05-07T17:22:40.676Z,34.50
2023-05-07T17:25:13.025Z,34.40
2023-05-07T17:27:44.239Z,34.40
2023-05-07T17:30:16.989Z,34.30
2023-05-07T17:35:42.188Z,34.30
2023-05-07T17:38:13.840Z,34.30
2023-05-07T17:46:25.447Z,34.20
2023-05-07T17:49:08.080Z,34.10
2023-05-07T17:51:52.666Z,34.10
2023-05-07T17:54:11.124Z,34.10
2023-05-07T17:56:43.189Z,34.10
2023-05-07T17:59:13.918Z,34.10
2023-05-07T18:01:46.551Z,34.10
2023-05-07T18:04:27.769Z,34.10
2023-05-07T18:06:58.561Z,34.10
2023-05-07T18:09:29.400Z,34.10
2023-05-07T18:12:00.924Z,34.10
2023-05-07T18:14:31.867Z,34.00
2023-05-07T18:17:02.719Z,34.00
2023-05-07T18:19:33.672Z,33.90
2023-05-07T18:22:07.227Z,33.90
2023-05-07T18:24:38.045Z,33.90
2023-05-07T18:27:08.794Z,33.90
2023-05-07T18:29:39.559Z,33.90
2023-05-07T18:32:10.373Z,33.90
2023-05-07T18:34:41.257Z,33.90
2023-05-07T18:37:12.389Z,33.90
2023-05-07T18:39:44.742Z,33.90
2023-05-07T18:42:20.670Z,33.90
2023-05-07T18:44:51.418Z,33.80
2023-05-07T18:47:22.290Z,33.80
2023-05-07T18:49:53.035Z,33.80
2023-05-07T18:52:23.755Z,33.80
2023-05-07T18:54:54.627Z,33.80
2023-05-07T18:57:26.082Z,33.70
2023-05-07T18:59:56.787Z,33.70
2023-05-07T19:02:27.551Z,33.70
2023-05-07T19:04:58.616Z,33.60
2023-05-07T19:07:29.635Z,33.60
2023-05-07T19:10:18.880Z,33.70
2023-05-07T19:12:45.151Z,33.60
2023-05-07T19:15:15.454Z,33.60
2023-05-07T19:17:46.277Z,33.60
2023-05-07T19:20:17.056Z,33.60
2023-05-07T19:22:47.793Z,33.60
2023-05-07T19:25:19.278Z,33.60
2023-05-07T19:27:50.271Z,33.60
2023-05-07T19:30:21.106Z,33.50
2023-05-07T19:32:51.871Z,33.50
2023-05-07T19:35:22.946Z,33.50
2023-05-07T19:37:54.008Z,33.50
2023-05-07T19:40:24.744Z,33.50
2023-05-07T19:42:55.730Z,33.50
2023-05-07T19:45:26.684Z,33.50
2023-05-07T19:47:57.569Z,33.50
2023-05-07T19:50:28.442Z,33.50
2023-05-07T19:53:00.067Z,33.50
2023-05-07T19:55:30.885Z,33.50
2023-05-07T19:58:01.612Z,33.50
2023-05-07T20:00:33.966Z,33.50
2023-05-07T20:03:04.911Z,33.50
2023-05-07T20:05:35.754Z,33.50
2023-05-07T20:08:07.463Z,33.40
2023-05-07T20:10:38.407Z,33.40
2023-05-07T20:13:09.198Z,33.40
2023-05-07T20:15:40.964Z,33.40
2023-05-07T20:18:12.046Z,33.30
2023-05-07T20:20:42.774Z,33.30
2023-05-07T20:23:13.501Z,33.30
2023-05-07T20:25:44.577Z,33.30
2023-05-07T20:28:15.304Z,33.20
2023-05-07T20:30:46.151Z,33.30
2023-05-07T20:33:16.889Z,33.20
2023-05-07T20:35:47.642Z,33.20
2023-05-07T20:38:18.484Z,33.20
2023-05-07T20:43:39.220Z,33.10
2023-05-07T20:46:10.098Z,33.10
2023-05-07T20:48:40.963Z,33.10
2023-05-07T20:51:15.585Z,33.30
2023-05-07T20:53:47.743Z,33.20
2023-05-07T20:56:18.442Z,33.20
2023-05-07T20:58:49.188Z,33.20
2023-05-07T21:01:19.989Z,33.20
2023-05-07T21:03:51.291Z,33.20
2023-05-07T21:06:22.026Z,33.10
2023-05-07T21:08:52.744Z,33.20
2023-05-07T21:11:23.514Z,33.10
2023-05-07T21:13:54.253Z,33.10
2023-05-07T21:16:25.032Z,33.10
2023-05-07T21:18:55.821Z,33.10
2023-05-07T21:21:30.992Z,33.00
2023-05-07T21:24:01.700Z,33.00
2023-05-07T21:26:32.531Z,33.00
2023-05-07T21:29:03.315Z,33.00
2023-05-07T21:31:34.104Z,33.00
2023-05-07T21:34:04.887Z,33.00
2023-05-07T21:36:55.213Z,33.00
2023-05-07T21:39:25.963Z,33.00
2023-05-07T21:42:02.994Z,33.00
2023-05-07T21:44:41.549Z,32.90
2023-05-07T21:47:13.159Z,33.00
2023-05-07T21:49:51.193Z,32.90
2023-05-07T21:52:23.878Z,33.00
2023-05-07T21:54:56.032Z,33.00
2023-05-07T21:57:29.625Z,32.90
2023-05-07T22:00:00.541Z,32.90
2023-05-07T22:02:32.721Z,32.90
2023-05-07T22:05:03.619Z,32.90
2023-05-07T22:07:34.335Z,32.90
2023-05-07T22:10:27.930Z,32.90
2023-05-07T22:12:55.756Z,33.00
2023-05-07T22:15:26.743Z,33.00
2023-05-07T22:17:57.512Z,32.90
2023-05-07T22:20:28.410Z,32.90
2023-05-07T22:22:59.464Z,32.80
2023-05-07T22:25:31.448Z,32.70
2023-05-07T22:28:02.303Z,32.70
2023-05-07T22:30:33.051Z,32.60
2023-05-07T22:33:03.833Z,32.60
2023-05-07T22:35:37.709Z,32.50
2023-05-07T22:38:08.551Z,32.50
2023-05-07T22:40:39.267Z,32.50
2023-05-07T22:43:15.069Z,32.40
2023-05-07T22:45:45.790Z,32.40
2023-05-07T22:48:16.519Z,32.40
2023-05-07T22:50:47.326Z,32.40
2023-05-07T22:53:18.067Z,32.40
2023-05-07T22:55:48.777Z,32.40
2023-05-07T22:58:19.467Z,32.40
2023-05-07T23:00:50.253Z,32.40
2023-05-07T23:03:21.064Z,32.40
2023-05-07T23:05:52.916Z,32.40
2023-05-07T23:08:24.404Z,32.40
2023-05-07T23:10:55.218Z,32.40
2023-05-07T23:13:28.931Z,32.30
2023-05-07T23:16:00.120Z,32.40
2023-05-07T23:18:33.549Z,32.40
2023-05-07T23:21:05.734Z,32.40
2023-05-07T23:23:37.680Z,32.40
2023-05-07T23:26:08.510Z,32.50
2023-05-07T23:28:39.456Z,32.50
2023-05-07T23:31:12.437Z,32.60
2023-05-07T23:33:43.184Z,32.60
2023-05-07T23:36:14.032Z,32.60
2023-05-07T23:38:44.782Z,32.60
2023-05-07T23:41:15.499Z,32.60
2023-05-07T23:43:46.218Z,32.60
2023-05-07T23:46:19.822Z,32.60
2023-05-07T23:48:50.630Z,32.60
2023-05-07T23:51:21.372Z,32.70
2023-05-07T23:53:52.090Z,32.70
2023-05-07T23:56:22.841Z,32.70
2023-05-07T23:58:53.716Z,32.60
